メインページ
METAR-TAF:

METAR-TAF

空港 :

ポートランド国際ジェットポート

ポートランド, メイン州, アメリカ合衆国

緯度: 43-38-32N, 経度: 070-18-16W, 海抜: 22m

現時点の気象観測

当レポートは23分前の15:51(UTC)に作成
気温 -10°C
湿度 48%
気圧 1033 hPa
視程: 16.1km
高度18000ftの雲はほとんどない
高度25000ftの千切れ雲あり

METAR: KPWM 181551Z 000/00KT 10SM FEW180 BKN250 M10/M19 A3049

時間: 11:14 (16:14 UTC)

予報

当レポートは4時間41分前の11:33(UTC)に作成
予報は18日の 12時(UTC)から 19日の 12時(UTC)まで有効
西の風 4kt
視程: 10km
高度20000ftの千切れ雲あり
18日の 1700時(UTC)から
南/南東の風 5kt
視程: 10km
高度10000ftの千切れ雲あり
18日の 2300時(UTC)から
東/南東の風 6kt
視程: 6.4km
高度1500ftの曇り
小雪, 靄
19日の 0300時(UTC)から
の風 7kt
視程: 1.6km
高度400ftの曇り
小雪, 靄

TAF: KPWM 181133Z 1812/1912 27004KT P6SM BKN200 FM181700 16005KT P6SM BKN100 FM182300 12006KT 4SM -SN BR OVC015 FM190300 10007KT 1SM -SN BR OVC004

4,000以上の空港の気象観測と天気予報(METAR報とTAF報)

利用可能な観測所は地図上に黄色い丸と赤い丸で示す。

丸の上にカーソルを重ねると観測所名を参照できる。

次にクリックすると気象観測と天気予報を参照できる。

マップの切り替え:黒色「×」印の緑ボタンをクリックして拡大、「-」印の緑ボタンをクリックして縮小、緑色の三角印をクリックして隣りの地図に切り替え


METAR-TAF: